sensor_id;sensor_type;location;lat;lon;timestamp;P1;durP1;ratioP1;P2;durP2;ratioP2
7473;SDS011;3778;42.572;23.426;2024-02-21T00:01:36;9.98;;;5.65;;
7473;SDS011;3778;42.572;23.426;2024-02-21T00:04:02;8.77;;;4.72;;
7473;SDS011;3778;42.572;23.426;2024-02-21T00:06:28;10.48;;;5.57;;
7473;SDS011;3778;42.572;23.426;2024-02-21T00:08:53;7.90;;;4.88;;
7473;SDS011;3778;42.572;23.426;2024-02-21T00:11:18;10.20;;;5.50;;
7473;SDS011;3778;42.572;23.426;2024-02-21T00:13:44;8.60;;;4.72;;
7473;SDS011;3778;42.572;23.426;2024-02-21T00:16:09;8.43;;;4.80;;
7473;SDS011;3778;42.572;23.426;2024-02-21T00:18:36;8.27;;;4.00;;
7473;SDS011;3778;42.572;23.426;2024-02-21T00:21:01;7.93;;;3.97;;
7473;SDS011;3778;42.572;23.426;2024-02-21T00:23:28;6.78;;;3.38;;
7473;SDS011;3778;42.572;23.426;2024-02-21T00:25:53;7.70;;;4.07;;
7473;SDS011;3778;42.572;23.426;2024-02-21T00:28:19;7.47;;;3.75;;
7473;SDS011;3778;42.572;23.426;2024-02-21T00:30:44;9.85;;;4.50;;
7473;SDS011;3778;42.572;23.426;2024-02-21T00:33:12;6.75;;;3.97;;
7473;SDS011;3778;42.572;23.426;2024-02-21T00:35:38;10.52;;;5.13;;
7473;SDS011;3778;42.572;23.426;2024-02-21T00:38:03;9.38;;;4.80;;
7473;SDS011;3778;42.572;23.426;2024-02-21T00:40:29;11.23;;;4.88;;
7473;SDS011;3778;42.572;23.426;2024-02-21T00:42:54;10.30;;;4.43;;
7473;SDS011;3778;42.572;23.426;2024-02-21T00:45:20;8.88;;;4.53;;
7473;SDS011;3778;42.572;23.426;2024-02-21T00:47:45;8.80;;;4.15;;
7473;SDS011;3778;42.572;23.426;2024-02-21T00:50:11;10.73;;;5.20;;
7473;SDS011;3778;42.572;23.426;2024-02-21T00:52:36;10.40;;;4.50;;
7473;SDS011;3778;42.572;23.426;2024-02-21T00:55:01;9.38;;;5.15;;
7473;SDS011;3778;42.572;23.426;2024-02-21T00:57:27;7.45;;;4.35;;
7473;SDS011;3778;42.572;23.426;2024-02-21T00:59:52;7.18;;;4.20;;
7473;SDS011;3778;42.572;23.426;2024-02-21T01:02:18;10.27;;;4.70;;
7473;SDS011;3778;42.572;23.426;2024-02-21T01:04:43;8.75;;;4.45;;
7473;SDS011;3778;42.572;23.426;2024-02-21T01:07:09;10.23;;;5.13;;
7473;SDS011;3778;42.572;23.426;2024-02-21T01:09:34;9.25;;;4.53;;
7473;SDS011;3778;42.572;23.426;2024-02-21T01:11:59;8.65;;;4.28;;
7473;SDS011;3778;42.572;23.426;2024-02-21T01:14:25;8.90;;;4.80;;
7473;SDS011;3778;42.572;23.426;2024-02-21T01:16:50;11.40;;;5.28;;
7473;SDS011;3778;42.572;23.426;2024-02-21T01:19:15;10.90;;;5.35;;
7473;SDS011;3778;42.572;23.426;2024-02-21T01:21:41;10.00;;;5.07;;
7473;SDS011;3778;42.572;23.426;2024-02-21T01:24:06;10.05;;;5.07;;
7473;SDS011;3778;42.572;23.426;2024-02-21T01:26:31;8.75;;;3.90;;
7473;SDS011;3778;42.572;23.426;2024-02-21T01:28:57;7.90;;;4.25;;
7473;SDS011;3778;42.572;23.426;2024-02-21T01:31:22;9.73;;;4.40;;
7473;SDS011;3778;42.572;23.426;2024-02-21T01:33:47;7.55;;;4.20;;
7473;SDS011;3778;42.572;23.426;2024-02-21T01:36:13;8.10;;;4.35;;
7473;SDS011;3778;42.572;23.426;2024-02-21T01:38:38;9.13;;;4.38;;
7473;SDS011;3778;42.572;23.426;2024-02-21T01:41:04;9.43;;;4.88;;
7473;SDS011;3778;42.572;23.426;2024-02-21T01:43:29;7.90;;;4.38;;
7473;SDS011;3778;42.572;23.426;2024-02-21T01:45:55;7.82;;;3.60;;
7473;SDS011;3778;42.572;23.426;2024-02-21T01:48:24;8.23;;;4.18;;
7473;SDS011;3778;42.572;23.426;2024-02-21T01:50:50;7.45;;;4.00;;
7473;SDS011;3778;42.572;23.426;2024-02-21T01:53:18;8.10;;;4.00;;
7473;SDS011;3778;42.572;23.426;2024-02-21T01:55:47;6.95;;;3.85;;
7473;SDS011;3778;42.572;23.426;2024-02-21T01:58:16;8.65;;;4.47;;
7473;SDS011;3778;42.572;23.426;2024-02-21T02:00:44;8.13;;;4.20;;
7473;SDS011;3778;42.572;23.426;2024-02-21T02:03:11;8.93;;;4.20;;
7473;SDS011;3778;42.572;23.426;2024-02-21T02:05:46;5.50;;;3.17;;
7473;SDS011;3778;42.572;23.426;2024-02-21T02:08:16;7.38;;;3.67;;
7473;SDS011;3778;42.572;23.426;2024-02-21T02:10:44;7.63;;;3.53;;
7473;SDS011;3778;42.572;23.426;2024-02-21T02:13:09;7.68;;;3.72;;
7473;SDS011;3778;42.572;23.426;2024-02-21T02:18:10;6.13;;;3.63;;
7473;SDS011;3778;42.572;23.426;2024-02-21T02:20:37;7.18;;;3.83;;
7473;SDS011;3778;42.572;23.426;2024-02-21T02:23:12;8.18;;;3.70;;
7473;SDS011;3778;42.572;23.426;2024-02-21T02:25:54;7.07;;;3.90;;
7473;SDS011;3778;42.572;23.426;2024-02-21T02:28:21;6.28;;;3.67;;
7473;SDS011;3778;42.572;23.426;2024-02-21T02:30:46;6.18;;;3.58;;
7473;SDS011;3778;42.572;23.426;2024-02-21T02:33:12;6.47;;;3.83;;
7473;SDS011;3778;42.572;23.426;2024-02-21T02:35:38;6.30;;;3.25;;
7473;SDS011;3778;42.572;23.426;2024-02-21T02:38:04;7.22;;;3.92;;
7473;SDS011;3778;42.572;23.426;2024-02-21T02:40:30;5.55;;;3.05;;
7473;SDS011;3778;42.572;23.426;2024-02-21T02:42:55;9.32;;;4.35;;
7473;SDS011;3778;42.572;23.426;2024-02-21T02:45:21;6.88;;;3.50;;
7473;SDS011;3778;42.572;23.426;2024-02-21T02:47:48;8.82;;;4.00;;
7473;SDS011;3778;42.572;23.426;2024-02-21T02:50:14;8.68;;;4.20;;
7473;SDS011;3778;42.572;23.426;2024-02-21T02:52:39;6.38;;;3.95;;
7473;SDS011;3778;42.572;23.426;2024-02-21T02:55:05;6.32;;;2.92;;
7473;SDS011;3778;42.572;23.426;2024-02-21T02:57:31;6.50;;;3.78;;
7473;SDS011;3778;42.572;23.426;2024-02-21T02:59:57;7.53;;;3.50;;
7473;SDS011;3778;42.572;23.426;2024-02-21T03:02:22;9.07;;;4.10;;
7473;SDS011;3778;42.572;23.426;2024-02-21T03:04:48;8.07;;;3.92;;
7473;SDS011;3778;42.572;23.426;2024-02-21T03:07:14;7.45;;;3.85;;
7473;SDS011;3778;42.572;23.426;2024-02-21T03:09:40;7.18;;;3.55;;
7473;SDS011;3778;42.572;23.426;2024-02-21T03:12:06;7.95;;;4.22;;
7473;SDS011;3778;42.572;23.426;2024-02-21T03:14:32;6.97;;;3.88;;
7473;SDS011;3778;42.572;23.426;2024-02-21T03:16:58;9.40;;;3.90;;
7473;SDS011;3778;42.572;23.426;2024-02-21T03:19:24;9.00;;;4.25;;
7473;SDS011;3778;42.572;23.426;2024-02-21T03:21:49;7.40;;;4.05;;
7473;SDS011;3778;42.572;23.426;2024-02-21T03:24:15;7.38;;;3.80;;
7473;SDS011;3778;42.572;23.426;2024-02-21T03:26:41;7.22;;;4.03;;
7473;SDS011;3778;42.572;23.426;2024-02-21T03:29:07;7.60;;;3.33;;
7473;SDS011;3778;42.572;23.426;2024-02-21T03:31:33;9.25;;;3.47;;
7473;SDS011;3778;42.572;23.426;2024-02-21T03:33:59;6.85;;;3.15;;
7473;SDS011;3778;42.572;23.426;2024-02-21T03:36:24;7.68;;;3.78;;
7473;SDS011;3778;42.572;23.426;2024-02-21T03:38:49;7.40;;;3.90;;
7473;SDS011;3778;42.572;23.426;2024-02-21T03:41:15;6.60;;;3.88;;
7473;SDS011;3778;42.572;23.426;2024-02-21T03:43:40;7.50;;;3.90;;
7473;SDS011;3778;42.572;23.426;2024-02-21T03:46:06;9.90;;;4.43;;
7473;SDS011;3778;42.572;23.426;2024-02-21T03:48:32;6.35;;;4.22;;
7473;SDS011;3778;42.572;23.426;2024-02-21T03:50:57;7.18;;;3.90;;
7473;SDS011;3778;42.572;23.426;2024-02-21T03:53:23;6.18;;;3.30;;
7473;SDS011;3778;42.572;23.426;2024-02-21T03:55:48;7.28;;;3.72;;
7473;SDS011;3778;42.572;23.426;2024-02-21T03:58:14;7.20;;;4.15;;
7473;SDS011;3778;42.572;23.426;2024-02-21T04:00:39;9.80;;;4.15;;
7473;SDS011;3778;42.572;23.426;2024-02-21T04:03:04;11.45;;;5.00;;
7473;SDS011;3778;42.572;23.426;2024-02-21T04:05:31;10.75;;;4.97;;
7473;SDS011;3778;42.572;23.426;2024-02-21T04:07:57;9.55;;;5.28;;
7473;SDS011;3778;42.572;23.426;2024-02-21T04:10:22;11.45;;;5.32;;
7473;SDS011;3778;42.572;23.426;2024-02-21T04:12:47;10.32;;;4.63;;
7473;SDS011;3778;42.572;23.426;2024-02-21T04:15:15;13.10;;;5.82;;
7473;SDS011;3778;42.572;23.426;2024-02-21T04:17:41;14.27;;;5.90;;
7473;SDS011;3778;42.572;23.426;2024-02-21T04:20:13;12.63;;;5.55;;
7473;SDS011;3778;42.572;23.426;2024-02-21T04:22:40;8.43;;;5.28;;
7473;SDS011;3778;42.572;23.426;2024-02-21T04:25:05;11.02;;;5.40;;
7473;SDS011;3778;42.572;23.426;2024-02-21T04:27:31;11.05;;;4.90;;
7473;SDS011;3778;42.572;23.426;2024-02-21T04:29:56;10.70;;;5.22;;
7473;SDS011;3778;42.572;23.426;2024-02-21T04:32:22;12.82;;;5.75;;
7473;SDS011;3778;42.572;23.426;2024-02-21T04:34:47;8.20;;;4.25;;
7473;SDS011;3778;42.572;23.426;2024-02-21T04:37:13;7.07;;;3.85;;
7473;SDS011;3778;42.572;23.426;2024-02-21T04:39:38;9.10;;;4.47;;
7473;SDS011;3778;42.572;23.426;2024-02-21T04:42:04;9.52;;;5.05;;
7473;SDS011;3778;42.572;23.426;2024-02-21T04:44:29;7.45;;;3.97;;
7473;SDS011;3778;42.572;23.426;2024-02-21T04:46:55;6.72;;;4.15;;
7473;SDS011;3778;42.572;23.426;2024-02-21T04:49:20;10.75;;;4.30;;
7473;SDS011;3778;42.572;23.426;2024-02-21T04:51:45;8.07;;;3.88;;
7473;SDS011;3778;42.572;23.426;2024-02-21T04:54:11;10.15;;;4.47;;
7473;SDS011;3778;42.572;23.426;2024-02-21T04:56:36;9.52;;;4.90;;
7473;SDS011;3778;42.572;23.426;2024-02-21T04:59:01;10.18;;;4.88;;
7473;SDS011;3778;42.572;23.426;2024-02-21T05:01:28;9.60;;;5.25;;
7473;SDS011;3778;42.572;23.426;2024-02-21T05:03:53;8.77;;;4.40;;
7473;SDS011;3778;42.572;23.426;2024-02-21T05:06:18;7.82;;;4.50;;
7473;SDS011;3778;42.572;23.426;2024-02-21T05:08:44;9.07;;;4.95;;
7473;SDS011;3778;42.572;23.426;2024-02-21T05:11:09;9.55;;;4.30;;
7473;SDS011;3778;42.572;23.426;2024-02-21T05:13:35;12.13;;;5.05;;
7473;SDS011;3778;42.572;23.426;2024-02-21T05:16:00;10.00;;;5.38;;
7473;SDS011;3778;42.572;23.426;2024-02-21T05:18:27;12.85;;;6.32;;
7473;SDS011;3778;42.572;23.426;2024-02-21T05:20:53;14.38;;;5.97;;
7473;SDS011;3778;42.572;23.426;2024-02-21T05:23:18;10.20;;;5.40;;
7473;SDS011;3778;42.572;23.426;2024-02-21T05:25:44;9.93;;;5.05;;
7473;SDS011;3778;42.572;23.426;2024-02-21T05:28:09;8.00;;;4.25;;
7473;SDS011;3778;42.572;23.426;2024-02-21T05:30:35;11.20;;;4.72;;
7473;SDS011;3778;42.572;23.426;2024-02-21T05:33:04;15.30;;;6.45;;
7473;SDS011;3778;42.572;23.426;2024-02-21T05:35:30;9.00;;;4.97;;
7473;SDS011;3778;42.572;23.426;2024-02-21T05:37:56;11.65;;;5.10;;
7473;SDS011;3778;42.572;23.426;2024-02-21T05:40:21;11.38;;;4.72;;
7473;SDS011;3778;42.572;23.426;2024-02-21T05:42:46;11.98;;;5.22;;
7473;SDS011;3778;42.572;23.426;2024-02-21T05:45:12;12.43;;;5.75;;
7473;SDS011;3778;42.572;23.426;2024-02-21T05:47:38;12.35;;;5.38;;
7473;SDS011;3778;42.572;23.426;2024-02-21T05:50:03;10.75;;;5.18;;
7473;SDS011;3778;42.572;23.426;2024-02-21T05:52:29;13.68;;;6.10;;
7473;SDS011;3778;42.572;23.426;2024-02-21T05:54:55;13.35;;;6.20;;
7473;SDS011;3778;42.572;23.426;2024-02-21T05:57:20;10.43;;;5.07;;
7473;SDS011;3778;42.572;23.426;2024-02-21T05:59:45;12.98;;;5.13;;
7473;SDS011;3778;42.572;23.426;2024-02-21T06:02:11;9.88;;;5.45;;
7473;SDS011;3778;42.572;23.426;2024-02-21T06:04:36;13.77;;;5.32;;
7473;SDS011;3778;42.572;23.426;2024-02-21T06:07:01;12.68;;;5.88;;
7473;SDS011;3778;42.572;23.426;2024-02-21T06:09:27;10.68;;;6.10;;
7473;SDS011;3778;42.572;23.426;2024-02-21T06:11:53;10.18;;;5.60;;
7473;SDS011;3778;42.572;23.426;2024-02-21T06:14:19;10.85;;;5.93;;
7473;SDS011;3778;42.572;23.426;2024-02-21T06:16:44;13.57;;;5.72;;
7473;SDS011;3778;42.572;23.426;2024-02-21T06:19:10;10.60;;;5.40;;
7473;SDS011;3778;42.572;23.426;2024-02-21T06:21:35;10.50;;;5.20;;
7473;SDS011;3778;42.572;23.426;2024-02-21T06:24:01;11.85;;;5.53;;
7473;SDS011;3778;42.572;23.426;2024-02-21T06:26:27;10.57;;;4.88;;
7473;SDS011;3778;42.572;23.426;2024-02-21T06:28:52;12.98;;;6.28;;
7473;SDS011;3778;42.572;23.426;2024-02-21T06:31:18;11.73;;;5.93;;
7473;SDS011;3778;42.572;23.426;2024-02-21T06:33:43;10.90;;;5.50;;
7473;SDS011;3778;42.572;23.426;2024-02-21T06:36:08;13.05;;;6.05;;
7473;SDS011;3778;42.572;23.426;2024-02-21T06:38:34;12.40;;;5.97;;
7473;SDS011;3778;42.572;23.426;2024-02-21T06:40:59;11.80;;;5.50;;
7473;SDS011;3778;42.572;23.426;2024-02-21T06:43:25;8.85;;;4.50;;
7473;SDS011;3778;42.572;23.426;2024-02-21T06:45:51;14.35;;;5.25;;
7473;SDS011;3778;42.572;23.426;2024-02-21T06:48:17;11.15;;;6.18;;
7473;SDS011;3778;42.572;23.426;2024-02-21T06:50:43;10.80;;;5.88;;
7473;SDS011;3778;42.572;23.426;2024-02-21T06:53:09;11.30;;;6.18;;
7473;SDS011;3778;42.572;23.426;2024-02-21T06:55:34;9.75;;;5.80;;
7473;SDS011;3778;42.572;23.426;2024-02-21T06:58:00;13.82;;;6.85;;
7473;SDS011;3778;42.572;23.426;2024-02-21T07:00:26;14.85;;;6.47;;
7473;SDS011;3778;42.572;23.426;2024-02-21T07:02:53;10.50;;;6.00;;
7473;SDS011;3778;42.572;23.426;2024-02-21T07:05:18;14.82;;;7.65;;
7473;SDS011;3778;42.572;23.426;2024-02-21T07:07:44;12.57;;;7.43;;
7473;SDS011;3778;42.572;23.426;2024-02-21T07:10:09;13.32;;;6.95;;
7473;SDS011;3778;42.572;23.426;2024-02-21T07:12:35;14.15;;;6.88;;
7473;SDS011;3778;42.572;23.426;2024-02-21T07:15:03;18.10;;;7.88;;
7473;SDS011;3778;42.572;23.426;2024-02-21T07:17:29;17.50;;;7.65;;
7473;SDS011;3778;42.572;23.426;2024-02-21T07:19:55;18.33;;;7.28;;
7473;SDS011;3778;42.572;23.426;2024-02-21T07:22:22;16.92;;;8.60;;
7473;SDS011;3778;42.572;23.426;2024-02-21T07:24:47;15.30;;;8.02;;
7473;SDS011;3778;42.572;23.426;2024-02-21T07:27:14;18.27;;;9.05;;
7473;SDS011;3778;42.572;23.426;2024-02-21T07:29:40;16.92;;;8.50;;
7473;SDS011;3778;42.572;23.426;2024-02-21T07:32:05;19.50;;;8.65;;
7473;SDS011;3778;42.572;23.426;2024-02-21T07:34:31;14.90;;;7.43;;
7473;SDS011;3778;42.572;23.426;2024-02-21T07:36:56;18.45;;;8.65;;
7473;SDS011;3778;42.572;23.426;2024-02-21T07:39:22;17.95;;;8.82;;
7473;SDS011;3778;42.572;23.426;2024-02-21T07:41:47;21.48;;;9.65;;
7473;SDS011;3778;42.572;23.426;2024-02-21T07:44:14;20.38;;;10.27;;
7473;SDS011;3778;42.572;23.426;2024-02-21T07:46:42;15.55;;;8.23;;
7473;SDS011;3778;42.572;23.426;2024-02-21T07:49:07;23.70;;;9.65;;
7473;SDS011;3778;42.572;23.426;2024-02-21T07:51:33;17.25;;;8.20;;
7473;SDS011;3778;42.572;23.426;2024-02-21T07:54:00;18.00;;;8.13;;
7473;SDS011;3778;42.572;23.426;2024-02-21T07:56:27;18.75;;;8.63;;
7473;SDS011;3778;42.572;23.426;2024-02-21T07:58:54;19.92;;;9.80;;
7473;SDS011;3778;42.572;23.426;2024-02-21T08:01:19;19.98;;;8.75;;
7473;SDS011;3778;42.572;23.426;2024-02-21T08:03:45;19.33;;;9.15;;
7473;SDS011;3778;42.572;23.426;2024-02-21T08:06:12;19.55;;;9.20;;
7473;SDS011;3778;42.572;23.426;2024-02-21T08:08:38;21.05;;;9.05;;
7473;SDS011;3778;42.572;23.426;2024-02-21T08:11:03;21.80;;;9.70;;
7473;SDS011;3778;42.572;23.426;2024-02-21T08:13:29;16.77;;;8.88;;
7473;SDS011;3778;42.572;23.426;2024-02-21T08:15:54;19.30;;;8.95;;
7473;SDS011;3778;42.572;23.426;2024-02-21T08:18:20;23.95;;;10.27;;
7473;SDS011;3778;42.572;23.426;2024-02-21T08:20:45;22.52;;;10.18;;
7473;SDS011;3778;42.572;23.426;2024-02-21T08:23:10;20.77;;;9.57;;
7473;SDS011;3778;42.572;23.426;2024-02-21T08:25:36;19.48;;;8.98;;
7473;SDS011;3778;42.572;23.426;2024-02-21T08:28:01;19.58;;;9.50;;
7473;SDS011;3778;42.572;23.426;2024-02-21T08:30:27;18.60;;;8.65;;
7473;SDS011;3778;42.572;23.426;2024-02-21T08:32:56;24.75;;;10.10;;
7473;SDS011;3778;42.572;23.426;2024-02-21T08:35:24;17.67;;;9.35;;
7473;SDS011;3778;42.572;23.426;2024-02-21T08:37:49;22.73;;;10.60;;
7473;SDS011;3778;42.572;23.426;2024-02-21T08:40:15;16.92;;;7.53;;
7473;SDS011;3778;42.572;23.426;2024-02-21T08:42:42;17.05;;;8.60;;
7473;SDS011;3778;42.572;23.426;2024-02-21T08:45:09;18.90;;;7.55;;
7473;SDS011;3778;42.572;23.426;2024-02-21T08:47:35;17.98;;;9.05;;
7473;SDS011;3778;42.572;23.426;2024-02-21T08:50:01;21.45;;;9.25;;
7473;SDS011;3778;42.572;23.426;2024-02-21T08:52:26;16.63;;;7.97;;
7473;SDS011;3778;42.572;23.426;2024-02-21T08:54:52;17.45;;;8.25;;
7473;SDS011;3778;42.572;23.426;2024-02-21T08:57:18;19.25;;;8.70;;
7473;SDS011;3778;42.572;23.426;2024-02-21T08:59:44;18.42;;;7.82;;
7473;SDS011;3778;42.572;23.426;2024-02-21T09:02:09;14.48;;;7.43;;
7473;SDS011;3778;42.572;23.426;2024-02-21T09:04:35;17.38;;;7.80;;
7473;SDS011;3778;42.572;23.426;2024-02-21T09:07:00;21.25;;;9.43;;
7473;SDS011;3778;42.572;23.426;2024-02-21T09:09:26;17.02;;;8.82;;
7473;SDS011;3778;42.572;23.426;2024-02-21T09:11:53;17.80;;;9.25;;
7473;SDS011;3778;42.572;23.426;2024-02-21T09:14:18;21.50;;;9.77;;
7473;SDS011;3778;42.572;23.426;2024-02-21T09:16:44;19.90;;;8.88;;
7473;SDS011;3778;42.572;23.426;2024-02-21T09:19:09;15.98;;;8.02;;
7473;SDS011;3778;42.572;23.426;2024-02-21T09:21:36;13.65;;;7.72;;
7473;SDS011;3778;42.572;23.426;2024-02-21T09:24:02;30.15;;;9.05;;
7473;SDS011;3778;42.572;23.426;2024-02-21T09:26:28;19.48;;;9.05;;
7473;SDS011;3778;42.572;23.426;2024-02-21T09:28:54;21.27;;;9.27;;
7473;SDS011;3778;42.572;23.426;2024-02-21T09:31:19;20.10;;;8.23;;
7473;SDS011;3778;42.572;23.426;2024-02-21T09:33:44;17.70;;;8.23;;
7473;SDS011;3778;42.572;23.426;2024-02-21T09:36:10;17.05;;;8.07;;
7473;SDS011;3778;42.572;23.426;2024-02-21T09:38:35;20.90;;;8.38;;
7473;SDS011;3778;42.572;23.426;2024-02-21T09:41:04;14.55;;;6.65;;
7473;SDS011;3778;42.572;23.426;2024-02-21T09:43:40;15.98;;;8.15;;
7473;SDS011;3778;42.572;23.426;2024-02-21T09:46:06;13.30;;;6.78;;
7473;SDS011;3778;42.572;23.426;2024-02-21T09:48:48;14.48;;;7.00;;
7473;SDS011;3778;42.572;23.426;2024-02-21T09:51:37;14.40;;;6.15;;
7473;SDS011;3778;42.572;23.426;2024-02-21T09:54:05;10.50;;;5.20;;
7473;SDS011;3778;42.572;23.426;2024-02-21T09:56:32;8.85;;;4.78;;
7473;SDS011;3778;42.572;23.426;2024-02-21T09:58:58;13.88;;;6.00;;
7473;SDS011;3778;42.572;23.426;2024-02-21T10:01:24;12.00;;;5.85;;
7473;SDS011;3778;42.572;23.426;2024-02-21T10:03:49;10.32;;;5.72;;
7473;SDS011;3778;42.572;23.426;2024-02-21T10:06:15;11.38;;;5.95;;
7473;SDS011;3778;42.572;23.426;2024-02-21T10:08:40;12.13;;;6.57;;
7473;SDS011;3778;42.572;23.426;2024-02-21T10:11:05;14.15;;;6.68;;
7473;SDS011;3778;42.572;23.426;2024-02-21T10:13:33;10.65;;;6.72;;
7473;SDS011;3778;42.572;23.426;2024-02-21T10:16:03;12.00;;;6.85;;
7473;SDS011;3778;42.572;23.426;2024-02-21T10:18:29;11.52;;;6.35;;
7473;SDS011;3778;42.572;23.426;2024-02-21T10:21:05;10.90;;;6.13;;
7473;SDS011;3778;42.572;23.426;2024-02-21T10:23:44;15.55;;;7.20;;
7473;SDS011;3778;42.572;23.426;2024-02-21T10:26:19;13.30;;;7.28;;
7473;SDS011;3778;42.572;23.426;2024-02-21T10:28:45;14.25;;;7.05;;
7473;SDS011;3778;42.572;23.426;2024-02-21T10:31:22;10.55;;;5.38;;
7473;SDS011;3778;42.572;23.426;2024-02-21T10:33:58;10.75;;;5.07;;
7473;SDS011;3778;42.572;23.426;2024-02-21T10:36:28;10.82;;;5.80;;
7473;SDS011;3778;42.572;23.426;2024-02-21T10:38:54;10.15;;;5.07;;
7473;SDS011;3778;42.572;23.426;2024-02-21T10:41:20;17.73;;;8.40;;
7473;SDS011;3778;42.572;23.426;2024-02-21T10:43:47;18.08;;;7.70;;
7473;SDS011;3778;42.572;23.426;2024-02-21T10:46:18;10.13;;;5.35;;
7473;SDS011;3778;42.572;23.426;2024-02-21T10:48:45;11.10;;;4.97;;
7473;SDS011;3778;42.572;23.426;2024-02-21T10:56:39;6.18;;;4.45;;
7473;SDS011;3778;42.572;23.426;2024-02-21T10:59:06;10.00;;;4.88;;
7473;SDS011;3778;42.572;23.426;2024-02-21T11:01:33;11.02;;;5.03;;
7473;SDS011;3778;42.572;23.426;2024-02-21T11:04:04;10.00;;;5.07;;
7473;SDS011;3778;42.572;23.426;2024-02-21T11:06:32;8.90;;;4.85;;
7473;SDS011;3778;42.572;23.426;2024-02-21T11:09:09;9.32;;;5.32;;
7473;SDS011;3778;42.572;23.426;2024-02-21T11:11:43;9.90;;;5.07;;
7473;SDS011;3778;42.572;23.426;2024-02-21T11:14:11;11.63;;;5.72;;
7473;SDS011;3778;42.572;23.426;2024-02-21T11:16:42;8.35;;;4.97;;
7473;SDS011;3778;42.572;23.426;2024-02-21T11:19:08;9.05;;;5.43;;
7473;SDS011;3778;42.572;23.426;2024-02-21T11:21:56;6.57;;;3.80;;
7473;SDS011;3778;42.572;23.426;2024-02-21T11:24:40;6.57;;;3.78;;
7473;SDS011;3778;42.572;23.426;2024-02-21T11:27:20;8.57;;;3.95;;
7473;SDS011;3778;42.572;23.426;2024-02-21T11:29:50;6.88;;;3.45;;
7473;SDS011;3778;42.572;23.426;2024-02-21T11:32:20;8.65;;;4.53;;
7473;SDS011;3778;42.572;23.426;2024-02-21T11:34:53;11.13;;;5.50;;
7473;SDS011;3778;42.572;23.426;2024-02-21T11:37:26;6.93;;;4.28;;
7473;SDS011;3778;42.572;23.426;2024-02-21T11:39:52;8.48;;;4.95;;
7473;SDS011;3778;42.572;23.426;2024-02-21T11:42:18;6.00;;;4.13;;
7473;SDS011;3778;42.572;23.426;2024-02-21T11:44:44;8.60;;;5.25;;
7473;SDS011;3778;42.572;23.426;2024-02-21T11:47:10;10.45;;;5.22;;
7473;SDS011;3778;42.572;23.426;2024-02-21T11:49:36;7.95;;;4.65;;
7473;SDS011;3778;42.572;23.426;2024-02-21T11:52:04;6.70;;;4.22;;
7473;SDS011;3778;42.572;23.426;2024-02-21T11:54:30;9.48;;;4.88;;
7473;SDS011;3778;42.572;23.426;2024-02-21T11:56:56;6.88;;;4.03;;
7473;SDS011;3778;42.572;23.426;2024-02-21T11:59:21;5.45;;;3.10;;
7473;SDS011;3778;42.572;23.426;2024-02-21T12:01:48;5.10;;;3.33;;
7473;SDS011;3778;42.572;23.426;2024-02-21T12:04:15;5.95;;;3.15;;
7473;SDS011;3778;42.572;23.426;2024-02-21T12:06:42;5.10;;;2.78;;
7473;SDS011;3778;42.572;23.426;2024-02-21T12:09:09;4.63;;;2.80;;
7473;SDS011;3778;42.572;23.426;2024-02-21T12:11:34;4.20;;;2.65;;
7473;SDS011;3778;42.572;23.426;2024-02-21T12:14:00;6.20;;;3.55;;
7473;SDS011;3778;42.572;23.426;2024-02-21T12:16:33;4.43;;;2.88;;
7473;SDS011;3778;42.572;23.426;2024-02-21T12:18:59;4.47;;;2.40;;
7473;SDS011;3778;42.572;23.426;2024-02-21T12:21:25;5.68;;;3.42;;
7473;SDS011;3778;42.572;23.426;2024-02-21T12:23:53;6.15;;;3.20;;
7473;SDS011;3778;42.572;23.426;2024-02-21T12:26:20;6.88;;;3.90;;
7473;SDS011;3778;42.572;23.426;2024-02-21T12:28:45;5.35;;;3.08;;
7473;SDS011;3778;42.572;23.426;2024-02-21T12:31:11;6.93;;;2.90;;
7473;SDS011;3778;42.572;23.426;2024-02-21T12:33:36;7.80;;;3.20;;
7473;SDS011;3778;42.572;23.426;2024-02-21T12:36:02;4.72;;;3.45;;
7473;SDS011;3778;42.572;23.426;2024-02-21T12:38:29;5.32;;;2.45;;
7473;SDS011;3778;42.572;23.426;2024-02-21T12:40:54;4.45;;;3.10;;
7473;SDS011;3778;42.572;23.426;2024-02-21T12:43:20;6.03;;;2.67;;
7473;SDS011;3778;42.572;23.426;2024-02-21T12:45:47;7.43;;;3.35;;
7473;SDS011;3778;42.572;23.426;2024-02-21T12:48:13;2.80;;;2.25;;
7473;SDS011;3778;42.572;23.426;2024-02-21T12:50:39;4.18;;;2.85;;
7473;SDS011;3778;42.572;23.426;2024-02-21T12:53:11;4.78;;;3.42;;
7473;SDS011;3778;42.572;23.426;2024-02-21T12:55:36;6.03;;;3.08;;
7473;SDS011;3778;42.572;23.426;2024-02-21T12:58:03;6.57;;;4.35;;
7473;SDS011;3778;42.572;23.426;2024-02-21T13:00:30;5.57;;;3.20;;
7473;SDS011;3778;42.572;23.426;2024-02-21T13:02:56;5.07;;;3.17;;
7473;SDS011;3778;42.572;23.426;2024-02-21T13:05:22;7.00;;;3.22;;
7473;SDS011;3778;42.572;23.426;2024-02-21T13:07:48;9.93;;;3.78;;
7473;SDS011;3778;42.572;23.426;2024-02-21T13:10:13;7.72;;;3.85;;
7473;SDS011;3778;42.572;23.426;2024-02-21T13:12:39;6.93;;;2.67;;
7473;SDS011;3778;42.572;23.426;2024-02-21T13:15:04;3.33;;;1.95;;
7473;SDS011;3778;42.572;23.426;2024-02-21T13:17:30;3.33;;;1.85;;
7473;SDS011;3778;42.572;23.426;2024-02-21T13:19:56;1.23;;;1.00;;
7473;SDS011;3778;42.572;23.426;2024-02-21T13:22:22;2.90;;;1.50;;
7473;SDS011;3778;42.572;23.426;2024-02-21T13:24:50;1.13;;;1.02;;
7473;SDS011;3778;42.572;23.426;2024-02-21T13:27:16;3.45;;;1.60;;
7473;SDS011;3778;42.572;23.426;2024-02-21T13:29:41;2.72;;;1.52;;
7473;SDS011;3778;42.572;23.426;2024-02-21T13:32:07;2.63;;;1.63;;
7473;SDS011;3778;42.572;23.426;2024-02-21T13:34:32;2.88;;;1.73;;
7473;SDS011;3778;42.572;23.426;2024-02-21T13:36:58;2.50;;;1.83;;
7473;SDS011;3778;42.572;23.426;2024-02-21T13:39:24;3.55;;;1.80;;
7473;SDS011;3778;42.572;23.426;2024-02-21T13:41:50;3.28;;;2.25;;
7473;SDS011;3778;42.572;23.426;2024-02-21T13:44:15;2.97;;;2.15;;
7473;SDS011;3778;42.572;23.426;2024-02-21T13:46:41;3.88;;;2.40;;
7473;SDS011;3778;42.572;23.426;2024-02-21T13:49:06;2.95;;;1.73;;
7473;SDS011;3778;42.572;23.426;2024-02-21T13:51:32;3.35;;;2.70;;
7473;SDS011;3778;42.572;23.426;2024-02-21T13:54:01;4.22;;;2.15;;
7473;SDS011;3778;42.572;23.426;2024-02-21T13:56:28;3.33;;;2.30;;
7473;SDS011;3778;42.572;23.426;2024-02-21T13:58:54;4.97;;;2.50;;
7473;SDS011;3778;42.572;23.426;2024-02-21T14:01:20;8.77;;;4.63;;
7473;SDS011;3778;42.572;23.426;2024-02-21T14:03:45;8.13;;;4.07;;
7473;SDS011;3778;42.572;23.426;2024-02-21T14:06:10;8.00;;;3.92;;
7473;SDS011;3778;42.572;23.426;2024-02-21T14:08:37;14.10;;;5.55;;
7473;SDS011;3778;42.572;23.426;2024-02-21T14:11:04;9.18;;;5.55;;
7473;SDS011;3778;42.572;23.426;2024-02-21T14:13:31;8.38;;;4.45;;
7473;SDS011;3778;42.572;23.426;2024-02-21T14:15:56;7.07;;;4.15;;
7473;SDS011;3778;42.572;23.426;2024-02-21T14:18:22;6.13;;;3.97;;
7473;SDS011;3778;42.572;23.426;2024-02-21T14:20:47;7.90;;;4.68;;
7473;SDS011;3778;42.572;23.426;2024-02-21T14:23:13;4.88;;;3.58;;
7473;SDS011;3778;42.572;23.426;2024-02-21T14:25:38;7.47;;;4.18;;
7473;SDS011;3778;42.572;23.426;2024-02-21T14:28:04;6.30;;;3.72;;
7473;SDS011;3778;42.572;23.426;2024-02-21T14:30:30;9.68;;;4.53;;
7473;SDS011;3778;42.572;23.426;2024-02-21T14:32:55;6.47;;;3.28;;
7473;SDS011;3778;42.572;23.426;2024-02-21T14:35:21;8.65;;;3.75;;
7473;SDS011;3778;42.572;23.426;2024-02-21T14:37:47;9.00;;;4.88;;
7473;SDS011;3778;42.572;23.426;2024-02-21T14:40:14;6.95;;;4.00;;
7473;SDS011;3778;42.572;23.426;2024-02-21T14:42:39;10.68;;;4.90;;
7473;SDS011;3778;42.572;23.426;2024-02-21T14:45:05;8.57;;;4.15;;
7473;SDS011;3778;42.572;23.426;2024-02-21T14:47:31;9.15;;;4.40;;
7473;SDS011;3778;42.572;23.426;2024-02-21T14:49:57;8.38;;;4.28;;
7473;SDS011;3778;42.572;23.426;2024-02-21T14:52:23;7.40;;;4.03;;
7473;SDS011;3778;42.572;23.426;2024-02-21T14:54:49;8.15;;;4.68;;
7473;SDS011;3778;42.572;23.426;2024-02-21T14:57:17;9.93;;;4.90;;
7473;SDS011;3778;42.572;23.426;2024-02-21T14:59:42;7.72;;;4.07;;